aviador You're here:

KMGW Decoded Metar

MORGANTOWN in WV, USA
Report Time2017-11-20 23:53:00
UTC Time2017-11-21 00:48:12
Flight Rules vfr VFR
Wind170° at 04 kt
W.Decomp.*RWY 18: 4.0 kt HW 0.1 kt LCW
W.Rank170° ranks 7
Current wind is below 170° avg. (5.3)
Visibility9999 m
Phenomena:N/A
Clouds:N/A
Expected CloudBase > 3,200 ft AGL from Temp-Dew spread
CeilingNone
Temp02°C (ISA -11)
Dew Point-6°C (56% RH)
AAT-2.1°C
QNH1020 hPa
Density Alt-217 ft
Elevation1,240 ft
Report Wrong Elevation
Raw Report
METAR KMGW 202353Z 17004KT 10SM CLR 02/M06 A3012 RMK AO2 SLP211 T00221061
10067 20022 58004=

Extra information for KMGW:More info

Metar Taf Metar & Taf Last 4 Metars F.Rules Stats Wind Profile Meteogram Temp Stats Airport Information Weather charts Add Link Nearby VenuesMetar ALERT Operation Metar Decoded Social comments

AIRNAV info for KMGW